Time;durP1;ratioP1;P1;durP2;ratioP2;P2;SDS_P1;SDS_P2;PMS_P1;PMS_P2;Temp;Humidity;BMP_temperature;BMP_pressure;BME280_temperature;BME280_humidity;BME280_pressure;Samples;Min_cycle;Max_cycle;Signal;HPM_P1;HPM_P2
2022/02/06 00:00:17;;;;;;;;;83.50;68.75;;;;;;;;5075549;28;8793;-75
2022/02/06 00:02:45;;;;;;;;;69.50;58.00;;;;;;;;5076743;28;8805;-75
2022/02/06 00:05:12;;;;;;;;;81.50;67.50;;;;;;;;5076547;28;8797;-75
2022/02/06 00:07:37;;;;;;;;;70.33;56.67;;;;;;;;5076709;28;8923;-75
2022/02/06 00:10:03;;;;;;;;;75.25;62.00;;;;;;;;5076542;28;11587;-75
2022/02/06 00:12:28;;;;;;;;;71.00;59.67;;;;;;;;5076532;28;8824;-75
2022/02/06 00:14:53;;;;;;;;;82.50;71.00;;;;;;;;5076034;28;9572;-75
2022/02/06 00:17:19;;;;;;;;;69.00;56.75;;;;;;;;5076100;28;8776;-75
2022/02/06 00:19:44;;;;;;;;;76.00;62.75;;;;;;;;5076567;28;8835;-75
2022/02/06 00:22:14;;;;;;;;;62.00;51.25;;;;;;;;5076306;28;8797;-75
2022/02/06 00:24:51;;;;;;;;;73.50;60.50;;;;;;;;5068024;28;8810;-75
2022/02/06 00:27:36;;;;;;;;;65.25;53.75;;;;;;;;5071362;28;8756;-75
2022/02/06 00:30:17;;;;;;;;;55.00;45.75;;;;;;;;5074694;28;8757;-75
2022/02/06 00:32:47;;;;;;;;;62.00;51.00;;;;;;;;5076083;28;8785;-75
2022/02/06 00:38:04;;;;;;;;;64.50;54.00;;;;;;;;5074389;28;11582;-75
2022/02/06 00:38:13;;;;;;;;;71.75;60.00;;;;;;;;5075314;28;8813;-75
2022/02/06 00:43:23;;;;;;;;;63.25;52.00;;;;;;;;5075839;28;12483;-75
2022/02/06 00:45:48;;;;;;;;;73.60;60.60;;;;;;;;5074065;28;8804;-75
2022/02/06 00:48:19;;;;;;;;;57.75;49.25;;;;;;;;5074413;28;8808;-75
2022/02/06 00:50:47;;;;;;;;;64.40;54.20;;;;;;;;5075768;28;9651;-74
2022/02/06 00:53:18;;;;;;;;;85.00;71.50;;;;;;;;5075878;28;8795;-75
2022/02/06 00:55:46;;;;;;;;;60.75;51.25;;;;;;;;5075807;28;8801;-75
2022/02/06 00:58:11;;;;;;;;;47.00;42.00;;;;;;;;5075724;28;8776;-75
2022/02/06 01:00:37;;;;;;;;;67.00;55.00;;;;;;;;5074040;28;8820;-75
2022/02/06 01:03:02;;;;;;;;;68.75;58.00;;;;;;;;5075662;28;8811;-74
2022/02/06 01:05:28;;;;;;;;;57.67;48.00;;;;;;;;5075961;28;8824;-74
2022/02/06 01:07:54;;;;;;;;;41.00;39.00;;;;;;;;5075717;28;8800;-74
2022/02/06 01:10:20;;;;;;;;;57.25;49.50;;;;;;;;5075123;28;8811;-75
2022/02/06 01:12:53;;;;;;;;;74.50;60.25;;;;;;;;5075100;28;8797;-74
2022/02/06 01:15:23;;;;;;;;;60.50;50.25;;;;;;;;5075140;28;8939;-75
2022/02/06 01:20:29;;;;;;;;;34.75;33.00;;;;;;;;5075405;28;8796;-74
2022/02/06 01:23:07;;;;;;;;;42.25;39.00;;;;;;;;5075720;28;8784;-74
2022/02/06 01:25:53;;;;;;;;;50.75;43.00;;;;;;;;5061968;28;8807;-75
2022/02/06 01:28:23;;;;;;;;;49.25;43.75;;;;;;;;5075332;28;8840;-75
2022/02/06 01:30:55;;;;;;;;;66.50;55.00;;;;;;;;5075232;28;8785;-75
2022/02/06 01:33:31;;;;;;;;;69.20;57.60;;;;;;;;5075541;28;8784;-75
2022/02/06 01:36:08;;;;;;;;;63.50;54.25;;;;;;;;5073643;28;9005;-75
2022/02/06 01:41:16;;;;;;;;;71.75;58.75;;;;;;;;5075255;28;8776;-75
2022/02/06 01:43:47;;;;;;;;;70.60;58.80;;;;;;;;5074568;28;8816;-75
2022/02/06 01:46:28;;;;;;;;;72.25;60.00;;;;;;;;5066555;28;9714;-75
2022/02/06 02:21:14;;;;;;;;;67.00;55.50;;;;;;;;5074556;28;8789;-75
2022/02/06 02:24:08;;;;;;;;;77.75;62.50;;;;;;;;5074216;28;9781;-75
2022/02/06 02:45:47;;;;;;;;;70.50;59.00;;;;;;;;5073661;28;8781;-75
2022/02/06 02:48:16;;;;;;;;;82.50;67.75;;;;;;;;5073759;28;8812;-75
2022/02/06 02:50:47;;;;;;;;;80.25;67.50;;;;;;;;5072482;28;8820;-75
2022/02/06 02:53:23;;;;;;;;;71.25;58.75;;;;;;;;5073917;28;11269;-75
2022/02/06 02:56:02;;;;;;;;;78.00;64.60;;;;;;;;5074019;28;8804;-75
2022/02/06 03:01:08;;;;;;;;;66.75;56.00;;;;;;;;5073911;28;8737;-75
2022/02/06 03:03:37;;;;;;;;;73.20;60.40;;;;;;;;5074009;28;8873;-75
2022/02/06 03:06:04;;;;;;;;;57.00;48.25;;;;;;;;5073984;28;8769;-75
2022/02/06 03:08:31;;;;;;;;;78.25;64.25;;;;;;;;5073900;28;8784;-75
2022/02/06 03:10:58;;;;;;;;;55.75;48.00;;;;;;;;5073902;28;8807;-75
2022/02/06 03:13:33;;;;;;;;;59.25;49.75;;;;;;;;5073840;28;8772;-75
2022/02/06 03:18:29;;;;;;;;;76.25;63.50;;;;;;;;5071497;28;8789;-75
2022/02/06 03:20:55;;;;;;;;;64.00;54.00;;;;;;;;5073570;28;8772;-75
2022/02/06 03:23:20;;;;;;;;;57.00;47.50;;;;;;;;5073684;28;8946;-75
2022/02/06 03:25:55;;;;;;;;;64.00;53.25;;;;;;;;5060437;28;8803;-75
2022/02/06 03:28:24;;;;;;;;;55.50;47.25;;;;;;;;5073776;28;8804;-75
2022/02/06 03:30:50;;;;;;;;;64.80;54.80;;;;;;;;5073609;28;11507;-75
2022/02/06 03:33:15;;;;;;;;;54.25;45.75;;;;;;;;5073830;28;8840;-75
2022/02/06 03:35:41;;;;;;;;;54.50;46.75;;;;;;;;5076571;28;8816;-75
2022/02/06 03:38:07;;;;;;;;;54.00;46.33;;;;;;;;5077301;28;9528;-75
2022/02/06 03:40:44;;;;;;;;;56.00;48.75;;;;;;;;5077197;28;8819;-75
2022/02/06 03:45:42;;;;;;;;;59.75;50.25;;;;;;;;5076623;28;8973;-75
2022/02/06 03:48:14;;;;;;;;;56.33;47.33;;;;;;;;5077150;28;9739;-75
2022/02/06 03:50:46;;;;;;;;;75.25;61.50;;;;;;;;5076926;28;11545;-75
2022/02/06 03:53:12;;;;;;;;;58.50;50.25;;;;;;;;5077014;28;8813;-75
2022/02/06 03:55:37;;;;;;;;;60.80;52.20;;;;;;;;5076907;28;8874;-75
2022/02/06 03:58:03;;;;;;;;;55.50;47.00;;;;;;;;5076985;28;8808;-75
2022/02/06 04:00:28;;;;;;;;;77.67;62.67;;;;;;;;5076611;28;8816;-75
2022/02/06 04:02:53;;;;;;;;;37.00;36.33;;;;;;;;5076852;28;8812;-75
2022/02/06 04:05:19;;;;;;;;;65.25;54.00;;;;;;;;5076846;28;8809;-75
2022/02/06 04:07:46;;;;;;;;;54.75;47.75;;;;;;;;5076841;28;8816;-75
2022/02/06 04:10:13;;;;;;;;;60.20;51.00;;;;;;;;5076951;28;9646;-75
2022/02/06 04:12:41;;;;;;;;;73.75;60.25;;;;;;;;5076638;28;8855;-75
2022/02/06 04:15:13;;;;;;;;;56.25;47.50;;;;;;;;5076304;28;9859;-75
2022/02/06 04:17:46;;;;;;;;;44.00;41.00;;;;;;;;5076499;28;9667;-75
2022/02/06 04:20:11;;;;;;;;;74.60;60.80;;;;;;;;5076467;28;8792;-75
2022/02/06 04:22:37;;;;;;;;;71.25;59.50;;;;;;;;5076438;28;8831;-75
2022/02/06 04:25:03;;;;;;;;;61.00;51.50;;;;;;;;5065312;28;9528;-75
2022/02/06 04:27:29;;;;;;;;;50.50;43.75;;;;;;;;5073144;28;8812;-75
2022/02/06 04:29:54;;;;;;;;;81.40;68.20;;;;;;;;5076466;28;9655;-75
2022/02/06 04:32:20;;;;;;;;;49.00;43.75;;;;;;;;5076360;28;8831;-75
2022/02/06 04:34:46;;;;;;;;;65.25;54.75;;;;;;;;5076538;28;8796;-75
2022/02/06 04:37:20;;;;;;;;;61.00;52.00;;;;;;;;5076127;28;8835;-75
2022/02/06 05:11:20;;;;;;;;;77.60;62.60;;;;;;;;5075886;28;8772;-75
2022/02/06 05:30:59;;;;;;;;;76.60;63.40;;;;;;;;5075220;28;8765;-75
2022/02/06 05:33:21;;;;;;;;;70.25;58.00;;;;;;;;5075168;28;8827;-75
2022/02/06 05:35:47;;;;;;;;;80.00;65.33;;;;;;;;5075006;28;8804;-75
2022/02/06 05:38:12;;;;;;;;;72.00;59.75;;;;;;;;5075395;28;8866;-75
2022/02/06 05:40:37;;;;;;;;;72.00;60.00;;;;;;;;5075155;28;8831;-75
2022/02/06 05:43:03;;;;;;;;;75.25;62.50;;;;;;;;5075172;28;8844;-75
2022/02/06 05:45:28;;;;;;;;;74.33;61.00;;;;;;;;5074731;28;8857;-75
2022/02/06 05:47:53;;;;;;;;;72.50;60.25;;;;;;;;5075018;28;8808;-75
2022/02/06 05:50:19;;;;;;;;;67.00;55.00;;;;;;;;5073362;28;8834;-75
2022/02/06 05:52:45;;;;;;;;;67.00;56.00;;;;;;;;5074963;28;8808;-75
2022/02/06 05:55:11;;;;;;;;;76.75;61.50;;;;;;;;5074821;28;8812;-75
2022/02/06 05:57:36;;;;;;;;;68.40;57.20;;;;;;;;5074228;28;8924;-75
2022/02/06 06:00:03;;;;;;;;;75.75;61.50;;;;;;;;5074728;28;8792;-75
2022/02/06 06:02:28;;;;;;;;;81.40;68.40;;;;;;;;5074865;28;8737;-75
2022/02/06 06:04:56;;;;;;;;;70.00;57.75;;;;;;;;5074874;28;8792;-75
2022/02/06 06:07:22;;;;;;;;;77.40;63.40;;;;;;;;5074894;28;8888;-75
2022/02/06 06:09:47;;;;;;;;;76.67;62.00;;;;;;;;5074682;28;8805;-75
2022/02/06 06:12:13;;;;;;;;;67.33;57.00;;;;;;;;5074786;28;9582;-75
2022/02/06 06:14:39;;;;;;;;;78.00;64.25;;;;;;;;5074199;28;8942;-75
2022/02/06 06:17:05;;;;;;;;;82.25;68.00;;;;;;;;5074447;28;8812;-75
2022/02/06 06:19:30;;;;;;;;;84.00;72.00;;;;;;;;5073151;28;8917;-75
2022/02/06 06:21:57;;;;;;;;;82.67;69.33;;;;;;;;5074389;28;11611;-75
2022/02/06 06:24:24;;;;;;;;;73.25;59.75;;;;;;;;5070050;28;8787;-75
2022/02/06 06:26:49;;;;;;;;;75.00;61.33;;;;;;;;5065376;28;8804;-75
2022/02/06 06:29:15;;;;;;;;;74.50;60.75;;;;;;;;5074102;28;10436;-75
2022/02/06 06:31:40;;;;;;;;;76.50;62.50;;;;;;;;5074444;28;8938;-75
2022/02/06 06:34:05;;;;;;;;;76.50;63.75;;;;;;;;5072986;28;8870;-75
2022/02/06 06:36:32;;;;;;;;;74.75;61.25;;;;;;;;5074237;28;8824;-75
2022/02/06 06:38:58;;;;;;;;;78.00;64.25;;;;;;;;5074329;28;8825;-75
2022/02/06 06:41:23;;;;;;;;;79.25;65.25;;;;;;;;5074246;28;8800;-75
2022/02/06 06:43:48;;;;;;;;;65.00;55.00;;;;;;;;5073868;28;8828;-75
2022/02/06 06:46:14;;;;;;;;;69.00;58.00;;;;;;;;5074410;28;8824;-75
2022/02/06 06:48:39;;;;;;;;;68.25;56.50;;;;;;;;5074036;28;8958;-75
2022/02/06 06:51:05;;;;;;;;;65.00;55.00;;;;;;;;5074138;28;8820;-75
2022/02/06 06:53:31;;;;;;;;;80.25;66.00;;;;;;;;5073922;28;11604;-75
2022/02/06 06:56:01;;;;;;;;;63.25;53.75;;;;;;;;5074156;28;8844;-75
2022/02/06 06:58:30;;;;;;;;;72.80;61.00;;;;;;;;5073648;28;8796;-75
2022/02/06 07:01:08;;;;;;;;;64.50;54.00;;;;;;;;5072557;28;8827;-75
2022/02/06 07:03:35;;;;;;;;;76.00;62.75;;;;;;;;5062717;28;8836;-75
2022/02/06 07:06:01;;;;;;;;;76.00;62.25;;;;;;;;5073679;28;8939;-75
2022/02/06 07:08:26;;;;;;;;;88.80;79.40;;;;;;;;5072176;28;11773;-75
2022/02/06 07:10:52;;;;;;;;;81.33;66.67;;;;;;;;5077251;28;8816;-75
2022/02/06 07:13:21;;;;;;;;;64.00;54.00;;;;;;;;5077696;28;8926;-75
2022/02/06 07:15:46;;;;;;;;;73.20;61.40;;;;;;;;5077090;28;8777;-75
2022/02/06 07:18:12;;;;;;;;;71.75;60.25;;;;;;;;5077676;28;8833;-75
2022/02/06 07:20:37;;;;;;;;;69.75;58.25;;;;;;;;5077218;28;8851;-75
2022/02/06 07:23:06;;;;;;;;;74.50;62.00;;;;;;;;5077331;28;8820;-75
2022/02/06 07:25:32;;;;;;;;;75.20;62.00;;;;;;;;5062173;28;8811;-75
2022/02/06 07:27:58;;;;;;;;;84.00;72.25;;;;;;;;5077514;28;8828;-75
2022/02/06 07:30:23;;;;;;;;;73.67;59.33;;;;;;;;5076811;28;8838;-75
2022/02/06 07:32:49;;;;;;;;;75.75;62.25;;;;;;;;5077457;28;8808;-75
2022/02/06 07:35:15;;;;;;;;;87.33;76.67;;;;;;;;5076949;28;8899;-74
2022/02/06 07:37:45;;;;;;;;;76.75;63.00;;;;;;;;5076497;28;11721;-74
2022/02/06 07:40:11;;;;;;;;;87.50;77.25;;;;;;;;5065346;28;8828;-74
2022/02/06 07:42:36;;;;;;;;;75.00;62.25;;;;;;;;5060018;28;11625;-74
2022/02/06 07:45:03;;;;;;;;;83.50;70.00;;;;;;;;5073778;28;8905;-74
2022/02/06 07:47:28;;;;;;;;;80.50;66.75;;;;;;;;5077200;28;8792;-74
2022/02/06 07:49:56;;;;;;;;;79.00;65.00;;;;;;;;5076716;28;8822;-74
2022/02/06 07:52:23;;;;;;;;;75.00;62.20;;;;;;;;5077002;28;8757;-74
2022/02/06 07:54:49;;;;;;;;;79.80;64.60;;;;;;;;5076914;28;8776;-74
2022/02/06 07:57:14;;;;;;;;;78.00;64.00;;;;;;;;5067995;28;8970;-74
2022/02/06 07:59:40;;;;;;;;;77.00;63.33;;;;;;;;5069287;28;8836;-76
2022/02/06 08:02:09;;;;;;;;;75.20;62.20;;;;;;;;5076815;28;8962;-76
2022/02/06 08:04:35;;;;;;;;;76.00;62.60;;;;;;;;5076965;28;8792;-77
2022/02/06 08:07:00;;;;;;;;;81.50;67.75;;;;;;;;5074272;28;8827;-77
2022/02/06 08:09:44;;;;;;;;;85.50;72.25;;;;;;;;5068128;28;8809;-77
2022/02/06 08:12:11;;;;;;;;;90.00;83.25;;;;;;;;5075246;28;8793;-77
2022/02/06 08:17:22;;;;;;;;;83.20;70.40;;;;;;;;5072023;28;8820;-77
2022/02/06 08:19:47;;;;;;;;;80.40;67.00;;;;;;;;5076135;28;8969;-76
2022/02/06 08:22:13;;;;;;;;;82.50;65.50;;;;;;;;5073450;28;8805;-77
2022/02/06 08:24:38;;;;;;;;;81.00;67.00;;;;;;;;5073336;28;8858;-77
2022/02/06 08:27:04;;;;;;;;;93.25;87.75;;;;;;;;5074972;28;8863;-77
2022/02/06 08:29:29;;;;;;;;;85.50;72.00;;;;;;;;5075599;28;8859;-77
2022/02/06 08:31:54;;;;;;;;;93.25;88.00;;;;;;;;5075062;28;8872;-77
2022/02/06 08:34:20;;;;;;;;;88.50;79.25;;;;;;;;5076134;28;8844;-77
2022/02/06 08:36:45;;;;;;;;;94.00;89.00;;;;;;;;5076020;28;8876;-77
2022/02/06 08:39:10;;;;;;;;;97.60;95.40;;;;;;;;5076355;28;10714;-76
2022/02/06 08:41:36;;;;;;;;;113.80;113.80;;;;;;;;5074428;28;10107;-76
2022/02/06 08:44:02;;;;;;;;;119.25;118.50;;;;;;;;5074659;28;9006;-77
2022/02/06 08:46:28;;;;;;;;;125.40;125.40;;;;;;;;5075387;28;8816;-79
2022/02/06 08:48:53;;;;;;;;;130.40;130.40;;;;;;;;5075788;28;11582;-78
2022/02/06 08:51:18;;;;;;;;;123.20;123.20;;;;;;;;5074127;28;8848;-78
2022/02/06 08:53:44;;;;;;;;;128.80;128.80;;;;;;;;5075858;28;8804;-77
2022/02/06 08:56:09;;;;;;;;;127.20;127.20;;;;;;;;5075047;28;8852;-78
2022/02/06 08:58:35;;;;;;;;;138.40;137.40;;;;;;;;5067941;28;8840;-77
2022/02/06 09:01:01;;;;;;;;;132.00;131.80;;;;;;;;5075422;28;8788;-78
2022/02/06 09:03:26;;;;;;;;;128.40;128.40;;;;;;;;5071039;28;8820;-77
2022/02/06 09:05:51;;;;;;;;;118.40;115.40;;;;;;;;5068200;28;8816;-77
2022/02/06 09:08:16;;;;;;;;;133.20;132.40;;;;;;;;5075410;28;8912;-80
2022/02/06 09:10:42;;;;;;;;;119.20;119.20;;;;;;;;5069382;28;8817;-77
2022/02/06 09:13:08;;;;;;;;;145.80;145.80;;;;;;;;5075463;28;8835;-77
2022/02/06 09:15:33;;;;;;;;;148.50;148.50;;;;;;;;5075034;28;8840;-79
2022/02/06 09:17:58;;;;;;;;;148.60;146.60;;;;;;;;5070946;28;9057;-78
2022/02/06 09:20:24;;;;;;;;;139.00;139.00;;;;;;;;5075149;28;8824;-78
2022/02/06 09:22:50;;;;;;;;;166.40;166.40;;;;;;;;5075322;28;8991;-78
2022/02/06 09:25:16;;;;;;;;;163.00;163.00;;;;;;;;5074477;28;8862;-78
2022/02/06 09:27:42;;;;;;;;;173.50;171.67;;;;;;;;5066970;28;8780;-78
2022/02/06 09:30:09;;;;;;;;;172.50;172.17;;;;;;;;5067533;28;8831;-77
2022/02/06 09:37:27;;;;;;;;;220.67;220.00;;;;;;;;5074789;28;8824;-78
2022/02/06 09:39:53;;;;;;;;;203.40;203.40;;;;;;;;5074859;28;8815;-78
2022/02/06 09:42:19;;;;;;;;;225.83;224.50;;;;;;;;5073469;28;8840;-77
2022/02/06 09:44:47;;;;;;;;;202.83;200.50;;;;;;;;5073096;28;8843;-78
2022/02/06 09:47:13;;;;;;;;;200.17;200.17;;;;;;;;5070532;28;8851;-76
2022/02/06 09:49:41;;;;;;;;;215.83;215.83;;;;;;;;5074562;28;8815;-77
2022/02/06 09:52:06;;;;;;;;;199.50;198.00;;;;;;;;5074234;28;8847;-77
2022/02/06 09:54:31;;;;;;;;;175.50;175.50;;;;;;;;5074614;28;8816;-77
2022/02/06 09:57:00;;;;;;;;;196.00;195.00;;;;;;;;5074443;28;8863;-77
2022/02/06 09:59:26;;;;;;;;;199.17;199.17;;;;;;;;5061664;28;8816;-78
2022/02/06 10:01:56;;;;;;;;;194.25;194.25;;;;;;;;5073532;28;8837;-82
2022/02/06 10:04:28;;;;;;;;;205.33;205.33;;;;;;;;5073003;28;8784;-81
2022/02/06 10:07:13;;;;;;;;;190.00;189.80;;;;;;;;5074502;28;8800;-77
2022/02/06 10:09:58;;;;;;;;;195.50;193.17;;;;;;;;5066514;28;8858;-82
2022/02/06 10:12:23;;;;;;;;;190.80;190.80;;;;;;;;5074150;28;8886;-78
2022/02/06 10:14:49;;;;;;;;;204.00;202.25;;;;;;;;5072518;28;8860;-78
2022/02/06 10:17:15;;;;;;;;;178.20;177.80;;;;;;;;5066607;28;8820;-78
2022/02/06 10:19:50;;;;;;;;;198.00;197.60;;;;;;;;5073957;28;8816;-78
2022/02/06 10:22:28;;;;;;;;;183.00;183.00;;;;;;;;5067464;28;8808;-79
2022/02/06 10:24:58;;;;;;;;;189.40;189.00;;;;;;;;5066781;28;8800;-77
2022/02/06 10:27:43;;;;;;;;;188.20;187.80;;;;;;;;5081788;28;8800;-78
2022/02/06 10:30:19;;;;;;;;;180.20;180.20;;;;;;;;5073307;28;12381;-77
2022/02/06 10:32:45;;;;;;;;;186.60;186.60;;;;;;;;5073618;28;8748;-77
2022/02/06 10:35:11;;;;;;;;;188.33;188.33;;;;;;;;5073561;28;8854;-78
2022/02/06 10:37:37;;;;;;;;;188.20;188.20;;;;;;;;5073953;28;8943;-80
2022/02/06 10:40:06;;;;;;;;;205.80;205.80;;;;;;;;5072328;28;8938;-78
2022/02/06 10:42:41;;;;;;;;;214.60;214.60;;;;;;;;5064874;28;8767;-81
2022/02/06 10:45:26;;;;;;;;;202.40;200.20;;;;;;;;5073115;28;11573;-79
2022/02/06 10:47:53;;;;;;;;;197.40;197.00;;;;;;;;5073610;28;9664;-81
2022/02/06 10:50:21;;;;;;;;;194.80;193.60;;;;;;;;5071804;28;8815;-82
2022/02/06 10:52:47;;;;;;;;;185.33;185.33;;;;;;;;5076654;28;8810;-81
2022/02/06 10:55:17;;;;;;;;;199.20;197.40;;;;;;;;5074861;28;8889;-81
2022/02/06 10:57:56;;;;;;;;;185.25;185.25;;;;;;;;5069320;28;8791;-78
2022/02/06 11:00:32;;;;;;;;;189.60;189.60;;;;;;;;5073447;28;8729;-78
2022/02/06 11:03:04;;;;;;;;;173.00;171.17;;;;;;;;5063598;28;8795;-78
2022/02/06 11:05:51;;;;;;;;;212.50;212.50;;;;;;;;5070186;28;8788;-78
2022/02/06 11:08:29;;;;;;;;;180.67;180.33;;;;;;;;5073663;28;9193;-78
2022/02/06 11:11:02;;;;;;;;;180.17;180.17;;;;;;;;5073483;28;9671;-78
2022/02/06 11:13:28;;;;;;;;;196.67;196.67;;;;;;;;5073180;28;8781;-80
2022/02/06 11:15:59;;;;;;;;;238.33;236.17;;;;;;;;5075722;28;9804;-76
2022/02/06 11:18:32;;;;;;;;;186.80;186.60;;;;;;;;5069360;28;8950;-77
2022/02/06 11:20:58;;;;;;;;;179.00;177.00;;;;;;;;5064292;28;9485;-77
2022/02/06 11:23:43;;;;;;;;;182.25;182.25;;;;;;;;5073139;28;8788;-76
2022/02/06 11:26:11;;;;;;;;;191.33;190.83;;;;;;;;5072990;28;8859;-76
2022/02/06 11:28:37;;;;;;;;;201.00;198.17;;;;;;;;5071227;28;8784;-77
2022/02/06 11:31:03;;;;;;;;;211.00;209.33;;;;;;;;5072886;28;8808;-76
2022/02/06 11:33:29;;;;;;;;;192.20;192.20;;;;;;;;5065201;28;8792;-78
2022/02/06 11:35:58;;;;;;;;;192.75;191.25;;;;;;;;5072714;28;8812;-79
2022/02/06 11:44:22;;;;;;;;;172.20;170.60;;;;;;;;5072718;28;11219;-77
2022/02/06 11:47:05;;;;;;;;;180.50;179.83;;;;;;;;5073404;28;8799;-77
2022/02/06 11:49:34;;;;;;;;;173.80;172.20;;;;;;;;5073058;28;8874;-77
2022/02/06 11:51:59;;;;;;;;;161.60;160.80;;;;;;;;5068591;28;8807;-77
2022/02/06 11:54:32;;;;;;;;;168.20;168.20;;;;;;;;5065135;28;8805;-78
2022/02/06 12:00:02;;;;;;;;;171.60;170.60;;;;;;;;5076475;28;8785;-76
2022/02/06 12:02:29;;;;;;;;;172.75;171.00;;;;;;;;5072675;28;8855;-76
2022/02/06 12:05:13;;;;;;;;;177.50;177.00;;;;;;;;5076568;28;10496;-78
2022/02/06 12:07:53;;;;;;;;;183.83;182.83;;;;;;;;5068595;28;8901;-78
2022/02/06 12:10:18;;;;;;;;;184.25;183.00;;;;;;;;5070318;28;8794;-76
2022/02/06 12:12:44;;;;;;;;;183.00;183.00;;;;;;;;5069167;28;8914;-76
2022/02/06 12:15:27;;;;;;;;;174.00;173.00;;;;;;;;5076120;28;8981;-76
2022/02/06 12:18:05;;;;;;;;;180.60;180.60;;;;;;;;5075773;28;8886;-76
2022/02/06 12:20:50;;;;;;;;;185.00;185.00;;;;;;;;5074697;28;8828;-77
2022/02/06 12:23:38;;;;;;;;;180.50;180.00;;;;;;;;5075034;28;8749;-77
2022/02/06 12:26:23;;;;;;;;;175.00;174.40;;;;;;;;5067303;28;8811;-78
2022/02/06 12:28:49;;;;;;;;;160.67;160.67;;;;;;;;5075671;28;11546;-78
2022/02/06 12:31:15;;;;;;;;;153.25;153.25;;;;;;;;5070221;28;8846;-78
2022/02/06 12:33:59;;;;;;;;;152.40;152.40;;;;;;;;5075939;28;8917;-79
2022/02/06 12:39:23;;;;;;;;;155.50;155.00;;;;;;;;5064683;28;8784;-78
2022/02/06 12:41:48;;;;;;;;;172.00;172.00;;;;;;;;5074119;28;8800;-77
2022/02/06 12:44:17;;;;;;;;;157.50;157.25;;;;;;;;5075502;28;8816;-79
2022/02/06 12:46:44;;;;;;;;;154.00;154.00;;;;;;;;5075967;28;8800;-78
2022/02/06 12:49:09;;;;;;;;;148.33;148.33;;;;;;;;5063466;28;12426;-78
2022/02/06 12:51:38;;;;;;;;;145.60;145.60;;;;;;;;5075516;28;8820;-78
2022/02/06 12:54:11;;;;;;;;;162.67;162.67;;;;;;;;5074226;28;8792;-79
2022/02/06 12:56:40;;;;;;;;;164.17;163.33;;;;;;;;5065462;28;8812;-81
2022/02/06 12:59:06;;;;;;;;;158.80;158.20;;;;;;;;5069834;28;8784;-80
2022/02/06 13:01:39;;;;;;;;;149.80;149.80;;;;;;;;5075621;28;9392;-80
2022/02/06 13:04:05;;;;;;;;;59.00;50.25;;;;;;;;5074703;28;8966;-82
2022/02/06 13:06:38;;;;;;;;;101.83;98.50;;;;;;;;5062159;28;8799;-81
2022/02/06 13:09:08;;;;;;;;;152.00;150.50;;;;;;;;5072347;28;8816;-81
2022/02/06 13:11:44;;;;;;;;;155.17;155.17;;;;;;;;5068913;28;8798;-82
2022/02/06 13:19:24;;;;;;;;;175.17;175.17;;;;;;;;5074910;28;8772;-78
2022/02/06 13:29:51;;;;;;;;;168.50;167.83;;;;;;;;5074008;28;9819;-81
2022/02/06 13:32:25;;;;;;;;;180.40;179.80;;;;;;;;5065871;28;8800;-78
2022/02/06 13:35:05;;;;;;;;;182.00;182.00;;;;;;;;5074549;28;8866;-79
2022/02/06 13:37:42;;;;;;;;;182.80;182.80;;;;;;;;5074645;28;8949;-80
2022/02/06 13:40:14;;;;;;;;;188.00;187.00;;;;;;;;5074845;28;8769;-79
2022/02/06 13:42:41;;;;;;;;;181.67;181.67;;;;;;;;5072888;28;8882;-80
2022/02/06 13:45:10;;;;;;;;;186.00;186.00;;;;;;;;5073618;28;8809;-78
2022/02/06 13:47:36;;;;;;;;;199.40;199.40;;;;;;;;5073827;28;9836;-81
2022/02/06 13:50:03;;;;;;;;;193.60;193.60;;;;;;;;5072915;28;8820;-79
2022/02/06 13:52:29;;;;;;;;;196.00;196.00;;;;;;;;5074247;28;9610;-80
2022/02/06 13:54:54;;;;;;;;;210.80;210.80;;;;;;;;5074774;28;8914;-79
2022/02/06 13:57:20;;;;;;;;;208.40;207.20;;;;;;;;5074273;28;9011;-79
2022/02/06 13:59:45;;;;;;;;;197.50;196.50;;;;;;;;5074162;28;8819;-79
2022/02/06 14:02:11;;;;;;;;;231.00;230.50;;;;;;;;5074316;28;8800;-79
2022/02/06 14:04:39;;;;;;;;;207.60;207.60;;;;;;;;5074447;28;8797;-79
2022/02/06 14:07:05;;;;;;;;;193.80;193.60;;;;;;;;5072909;28;8897;-79
2022/02/06 14:09:43;;;;;;;;;232.80;232.80;;;;;;;;5074839;28;9703;-79
2022/02/06 14:12:09;;;;;;;;;192.33;192.33;;;;;;;;5074284;28;8826;-79
2022/02/06 14:14:35;;;;;;;;;237.00;237.00;;;;;;;;5074139;28;8840;-79
2022/02/06 14:17:01;;;;;;;;;176.75;176.75;;;;;;;;5074039;28;8840;-80
2022/02/06 14:19:35;;;;;;;;;209.80;209.80;;;;;;;;5074090;28;8813;-79
2022/02/06 14:22:01;;;;;;;;;223.67;223.67;;;;;;;;5072781;28;11654;-79
2022/02/06 14:24:27;;;;;;;;;220.83;220.83;;;;;;;;5074188;28;8788;-79
2022/02/06 14:27:00;;;;;;;;;217.67;217.67;;;;;;;;5074448;28;8985;-79
2022/02/06 14:29:25;;;;;;;;;192.60;191.80;;;;;;;;5072267;28;8831;-79
2022/02/06 14:31:51;;;;;;;;;180.83;180.83;;;;;;;;5074242;28;8800;-79
2022/02/06 14:34:17;;;;;;;;;181.75;181.75;;;;;;;;5074256;28;8800;-79
2022/02/06 14:37:01;;;;;;;;;168.00;168.00;;;;;;;;5074129;28;8909;-79
2022/02/06 14:39:33;;;;;;;;;60.25;51.25;;;;;;;;5074237;28;9295;-79
2022/02/06 14:42:08;;;;;;;;;89.80;84.00;;;;;;;;5074334;28;11576;-78
2022/02/06 14:44:34;;;;;;;;;27.33;27.33;;;;;;;;5073043;28;8827;-79
2022/02/06 14:46:59;;;;;;;;;60.25;51.75;;;;;;;;5074340;28;8800;-78
2022/02/06 14:49:27;;;;;;;;;124.40;124.20;;;;;;;;5058843;28;9598;-79
2022/02/06 14:51:53;;;;;;;;;87.25;83.50;;;;;;;;5074332;28;8800;-79
2022/02/06 14:54:27;;;;;;;;;93.50;91.00;;;;;;;;5062455;28;12393;-80
2022/02/06 14:56:52;;;;;;;;;73.50;69.00;;;;;;;;5073120;28;8817;-80
2022/02/06 14:59:17;;;;;;;;;34.50;34.00;;;;;;;;5069065;28;8914;-80
2022/02/06 15:01:44;;;;;;;;;152.00;152.00;;;;;;;;5070692;28;8847;-80
2022/02/06 15:04:10;;;;;;;;;80.40;74.60;;;;;;;;5073907;28;8803;-79
2022/02/06 15:06:35;;;;;;;;;74.40;67.20;;;;;;;;5068767;28;10591;-76
2022/02/06 15:09:01;;;;;;;;;65.50;57.25;;;;;;;;5065957;28;8870;-77
2022/02/06 15:11:26;;;;;;;;;73.50;63.00;;;;;;;;5074042;28;8895;-77
2022/02/06 15:13:52;;;;;;;;;103.75;102.50;;;;;;;;5073612;28;8841;-78
2022/02/06 15:16:21;;;;;;;;;95.00;91.00;;;;;;;;5073831;28;8820;-77
2022/02/06 15:18:54;;;;;;;;;23.75;23.75;;;;;;;;5073999;28;8807;-77
2022/02/06 15:21:19;;;;;;;;;109.17;105.83;;;;;;;;5068787;28;8779;-79
2022/02/06 15:23:45;;;;;;;;;95.25;90.50;;;;;;;;5072247;28;8917;-79
2022/02/06 15:26:10;;;;;;;;;89.00;83.40;;;;;;;;5071668;28;8804;-80
2022/02/06 15:28:36;;;;;;;;;136.40;136.20;;;;;;;;5071274;28;8822;-80
2022/02/06 15:31:01;;;;;;;;;49.25;43.75;;;;;;;;5074528;28;8947;-80
2022/02/06 15:33:26;;;;;;;;;116.75;115.00;;;;;;;;5075337;28;8816;-80
2022/02/06 15:35:52;;;;;;;;;75.00;67.25;;;;;;;;5067530;28;8844;-80
2022/02/06 15:38:20;;;;;;;;;139.20;139.20;;;;;;;;5074079;28;8804;-79
2022/02/06 15:40:46;;;;;;;;;119.00;117.67;;;;;;;;5063825;28;11568;-79
2022/02/06 15:43:11;;;;;;;;;102.60;98.80;;;;;;;;5076859;28;8826;-80
2022/02/06 15:45:39;;;;;;;;;137.83;137.67;;;;;;;;5076836;28;8995;-80
2022/02/06 15:48:04;;;;;;;;;41.50;38.00;;;;;;;;5073830;28;8737;-79
2022/02/06 15:50:30;;;;;;;;;30.25;29.50;;;;;;;;5075558;28;8832;-79
2022/02/06 15:52:55;;;;;;;;;54.50;47.25;;;;;;;;5077328;28;8804;-79
2022/02/06 15:55:20;;;;;;;;;15.75;15.75;;;;;;;;5077248;28;8928;-79
2022/02/06 15:57:46;;;;;;;;;34.25;33.00;;;;;;;;5076393;28;8843;-78
2022/02/06 16:00:12;;;;;;;;;0.00;0.00;;;;;;;;5067675;28;8893;-79
2022/02/06 16:02:37;;;;;;;;;10.00;10.00;;;;;;;;5071165;28;8837;-79
2022/02/06 16:05:04;;;;;;;;;0.00;0.00;;;;;;;;5071107;28;8820;-79
2022/02/06 16:07:29;;;;;;;;;0.00;0.00;;;;;;;;5074457;28;8819;-79
2022/02/06 16:09:54;;;;;;;;;0.00;0.00;;;;;;;;5069416;28;8827;-78
2022/02/06 16:12:20;;;;;;;;;1.25;1.25;;;;;;;;5073607;28;8816;-78
2022/02/06 16:14:46;;;;;;;;;0.00;0.00;;;;;;;;5074851;28;8957;-78
2022/02/06 16:17:12;;;;;;;;;10.75;10.75;;;;;;;;5074265;28;8856;-77
2022/02/06 16:19:38;;;;;;;;;3.25;3.25;;;;;;;;5076838;28;8835;-76
2022/02/06 16:22:07;;;;;;;;;1.00;1.00;;;;;;;;5076451;28;8805;-76
2022/02/06 16:24:34;;;;;;;;;2.00;2.00;;;;;;;;5074142;28;8808;-76
2022/02/06 16:27:00;;;;;;;;;0.00;0.00;;;;;;;;5076813;28;8793;-76
2022/02/06 16:29:26;;;;;;;;;0.00;0.00;;;;;;;;5076387;28;8769;-77
2022/02/06 16:31:52;;;;;;;;;54.20;46.00;;;;;;;;5076622;28;8844;-76
2022/02/06 16:34:17;;;;;;;;;0.00;0.00;;;;;;;;5070675;28;8820;-76
2022/02/06 16:36:42;;;;;;;;;1.00;1.00;;;;;;;;5073050;28;8962;-76
2022/02/06 16:39:08;;;;;;;;;8.75;8.75;;;;;;;;5075789;28;8873;-76
2022/02/06 16:41:33;;;;;;;;;18.00;18.00;;;;;;;;5062217;28;8838;-77
2022/02/06 16:43:58;;;;;;;;;55.75;48.00;;;;;;;;5086959;28;8838;-78
2022/02/06 16:46:25;;;;;;;;;52.50;46.00;;;;;;;;5076056;28;8891;-79
2022/02/06 16:48:50;;;;;;;;;57.20;49.20;;;;;;;;5076315;28;8737;-79
2022/02/06 16:51:16;;;;;;;;;3.00;3.00;;;;;;;;5075947;28;8863;-78
2022/02/06 16:53:45;;;;;;;;;23.75;23.00;;;;;;;;5074815;28;8789;-78